Time;durP1;ratioP1;P1;durP2;ratioP2;P2;SDS_P1;SDS_P2;PMS_P1;PMS_P2;Temp;Humidity;BMP_temperature;BMP_pressure;BME280_temperature;BME280_humidity;BME280_pressure;Samples;Min_cycle;Max_cycle;Signal;HPM_P1;HPM_P2
2021/08/06 00:07:29;;;;;;;4.2;3;;;;;;;14.68;100;97021.66;;;;
2021/08/06 00:17:29;;;;;;;4.7;3.3;;;;;;;14.61;100;97010.73;;;;
2021/08/06 00:27:28;;;;;;;5;2.9;;;;;;;14.54;100;97014.13;;;;
2021/08/06 00:37:28;;;;;;;4.9;2.4;;;;;;;14.47;100;97030.31;;;;
2021/08/06 00:47:27;;;;;;;3.4;1.9;;;;;;;14.48;100;97028.38;;;;
2021/08/06 00:57:27;;;;;;;3.2;2.1;;;;;;;14.38;100;97035.25;;;;
2021/08/06 01:07:27;;;;;;;3.3;1.6;;;;;;;14.27;100;97037.02;;;;
2021/08/06 01:17:26;;;;;;;3.9;2.6;;;;;;;14.32;100;97030.5;;;;
2021/08/06 01:27:26;;;;;;;3.3;2.3;;;;;;;14.31;100;97039.77;;;;
2021/08/06 01:37:25;;;;;;;3.8;2.5;;;;;;;14.28;100;97046.72;;;;
2021/08/06 01:47:25;;;;;;;6.3;3.6;;;;;;;14.28;100;97054.06;;;;
2021/08/06 01:57:24;;;;;;;5.6;2.9;;;;;;;14.24;100;97056.73;;;;
2021/08/06 02:07:24;;;;;;;5;2.9;;;;;;;14.26;100;97054.45;;;;
2021/08/06 02:17:24;;;;;;;5.6;2.9;;;;;;;14.3;100;97055.25;;;;
2021/08/06 02:27:23;;;;;;;4.1;2.3;;;;;;;14.28;100;97051.35;;;;
2021/08/06 02:37:23;;;;;;;3.5;2.1;;;;;;;14.27;100;97066.04;;;;
2021/08/06 02:47:22;;;;;;;3.6;2.4;;;;;;;14.2;100;97066.73;;;;
2021/08/06 02:57:22;;;;;;;4.2;2.5;;;;;;;14.2;100;97066.73;;;;
2021/08/06 03:07:21;;;;;;;6;2.9;;;;;;;14.17;100;97086.44;;;;
2021/08/06 03:17:21;;;;;;;4.4;2.3;;;;;;;14.11;100;97085.2;;;;
2021/08/06 03:27:20;;;;;;;5.4;3.2;;;;;;;14.02;100;97099;;;;
2021/08/06 03:37:20;;;;;;;4.2;2.7;;;;;;;13.87;100;97099.18;;;;
2021/08/06 03:47:19;;;;;;;7.3;2.8;;;;;;;13.77;100;97114.13;;;;
2021/08/06 03:57:19;;;;;;;4.6;2.8;;;;;;;13.67;100;97122.87;;;;
2021/08/06 04:07:19;;;;;;;3.5;1.8;;;;;;;13.72;100;97125.25;;;;
2021/08/06 04:17:18;;;;;;;4.2;1.9;;;;;;;13.63;100;97134.77;;;;
2021/08/06 04:27:18;;;;;;;3.1;1.8;;;;;;;13.6;100;97152.53;;;;
2021/08/06 04:37:17;;;;;;;3.7;2.3;;;;;;;13.54;100;97159.37;;;;
2021/08/06 04:47:17;;;;;;;3.6;2.2;;;;;;;13.52;100;97167.87;;;;
2021/08/06 04:57:16;;;;;;;5.7;4.3;;;;;;;13.48;100;97172.43;;;;
2021/08/06 05:07:16;;;;;;;7.6;5.7;;;;;;;13.44;100;97176.2;;;;
2021/08/06 05:17:15;;;;;;;7.6;5.7;;;;;;;13.54;100;97186.44;;;;
2021/08/06 05:27:15;;;;;;;7.4;5;;;;;;;13.5;100;97193.73;;;;
2021/08/06 05:37:14;;;;;;;7.4;5.1;;;;;;;13.52;100;97204.97;;;;
2021/08/06 05:47:14;;;;;;;11.1;7.5;;;;;;;13.61;100;97214.42;;;;
2021/08/06 05:57:14;;;;;;;8.3;7.3;;;;;;;13.69;100;97226.16;;;;
2021/08/06 06:07:13;;;;;;;10.4;6.7;;;;;;;13.78;100;97237.52;;;;
2021/08/06 06:17:14;;;;;;;5.5;4.6;;;;;;;13.87;100;97243.5;;;;
2021/08/06 06:27:12;;;;;;;5.9;4.3;;;;;;;13.89;100;97240.41;;;;
2021/08/06 06:37:12;;;;;;;5;3.1;;;;;;;13.81;100;97261.2;;;;
2021/08/06 06:47:12;;;;;;;11.7;3;;;;;;;13.83;100;97274.36;;;;
2021/08/06 06:57:11;;;;;;;3.8;2.2;;;;;;;13.89;100;97281.83;;;;
2021/08/06 07:07:11;;;;;;;3.7;1.7;;;;;;;13.87;100;97302.3;;;;
2021/08/06 07:17:11;;;;;;;4.7;1.9;;;;;;;13.99;100;97296.69;;;;
2021/08/06 07:27:10;;;;;;;2.9;2;;;;;;;14.03;100;97306.45;;;;
2021/08/06 07:37:10;;;;;;;5.8;4.1;;;;;;;13.98;100;97325.73;;;;
2021/08/06 07:47:09;;;;;;;6.2;3.3;;;;;;;14.18;100;97334.59;;;;
2021/08/06 07:57:09;;;;;;;4.5;2.5;;;;;;;14.19;100;97328.03;;;;
2021/08/06 08:07:09;;;;;;;5.6;2.8;;;;;;;14.54;100;97342.17;;;;
2021/08/06 08:17:08;;;;;;;8;6.4;;;;;;;14.79;100;97353.41;;;;
2021/08/06 08:27:08;;;;;;;11;5.8;;;;;;;14.79;100;97364.27;;;;
2021/08/06 08:37:08;;;;;;;6.5;5.3;;;;;;;14.71;100;97362.61;;;;
2021/08/06 08:47:07;;;;;;;7.5;5;;;;;;;14.79;100;97361.55;;;;
2021/08/06 08:57:07;;;;;;;9.4;5;;;;;;;15.35;100;97386.02;;;;
2021/08/06 09:07:08;;;;;;;6.1;4.2;;;;;;;15.66;100;97397.68;;;;
2021/08/06 09:17:07;;;;;;;6.6;4.7;;;;;;;16.03;100;97409.41;;;;
2021/08/06 09:27:07;;;;;;;6;4.5;;;;;;;16.82;100;97407.09;;;;
2021/08/06 09:37:11;;;;;;;5.2;3;;;;;;;17.25;100;97401.95;;;;
2021/08/06 09:47:07;;;;;;;8.1;4.2;;;;;;;16.74;100;97410.11;;;;
2021/08/06 09:57:13;;;;;;;8.9;3.9;;;;;;;16.34;100;97413.61;;;;
2021/08/06 10:07:07;;;;;;;7.3;4.2;;;;;;;16.52;100;97414.58;;;;
2021/08/06 10:17:07;;;;;;;6.5;4.4;;;;;;;17.3;100;97431.54;;;;
2021/08/06 10:27:07;;;;;;;7.6;4.9;;;;;;;17.4;100;97426.16;;;;
2021/08/06 10:37:07;;;;;;;7.9;4.4;;;;;;;17.35;100;97442.88;;;;
2021/08/06 10:47:07;;;;;;;5.4;2.8;;;;;;;16.55;100;97446.46;;;;
2021/08/06 10:57:07;;;;;;;6.5;3.9;;;;;;;16.37;100;97453.66;;;;
2021/08/06 11:07:07;;;;;;;5.2;4;;;;;;;15.92;100;97470.99;;;;
2021/08/06 11:17:07;;;;;;;3.5;1.2;;;;;;;14.9;100;97490.01;;;;
2021/08/06 11:27:07;;;;;;;2.8;1.9;;;;;;;15.53;100;97484.05;;;;
2021/08/06 11:37:06;;;;;;;2.4;1.5;;;;;;;16.48;100;97487.97;;;;
2021/08/06 11:47:06;;;;;;;6.1;2.1;;;;;;;17.28;100;97491.06;;;;
2021/08/06 11:57:06;;;;;;;4.9;1.8;;;;;;;16.89;100;97483.35;;;;
2021/08/06 12:07:06;;;;;;;3.9;2.4;;;;;;;16.76;100;97495.67;;;;
2021/08/06 12:17:06;;;;;;;3.2;2;;;;;;;16.28;100;97513;;;;
2021/08/06 12:27:06;;;;;;;4.7;2.9;;;;;;;15.9;100;97520.26;;;;
2021/08/06 12:37:07;;;;;;;17.8;6.9;;;;;;;16.11;100;97522.47;;;;
2021/08/06 12:47:06;;;;;;;9.4;4.6;;;;;;;16.45;100;97534.92;;;;
2021/08/06 12:57:09;;;;;;;6.6;4.6;;;;;;;16.37;100;97532.52;;;;
2021/08/06 13:07:06;;;;;;;5.2;2.4;;;;;;;17.08;100;97537.56;;;;
2021/08/06 13:17:06;;;;;;;8.4;5.3;;;;;;;17.56;100;97543.81;;;;
2021/08/06 13:27:06;;;;;;;5.1;3.5;;;;;;;17.38;100;97553;;;;
2021/08/06 13:37:06;;;;;;;3.3;1.9;;;;;;;17.99;100;97557.73;;;;
2021/08/06 13:47:06;;;;;;;3.6;1.7;;;;;;;18.7;100;97563.55;;;;
2021/08/06 13:57:06;;;;;;;5.3;2.1;;;;;;;19.21;100;97571.45;;;;
2021/08/06 14:07:08;;;;;;;3.1;1.6;;;;;;;19.17;100;97587.84;;;;
2021/08/06 14:17:07;;;;;;;4;1.9;;;;;;;20.33;100;97594.48;;;;
2021/08/06 14:27:07;;;;;;;13.4;1.9;;;;;;;18.97;100;97603.8;;;;
2021/08/06 14:37:07;;;;;;;4.1;1.3;;;;;;;19.36;100;97616.77;;;;
2021/08/06 14:47:08;;;;;;;2.9;1.5;;;;;;;19.04;100;97625.67;;;;
2021/08/06 14:57:08;;;;;;;3.6;2;;;;;;;18.77;100;97638.06;;;;
2021/08/06 15:07:08;;;;;;;4.3;2.1;;;;;;;19.72;100;97648.44;;;;
2021/08/06 15:17:08;;;;;;;3;1.6;;;;;;;19.32;100;97663.2;;;;
2021/08/06 15:27:09;;;;;;;3.6;1.5;;;;;;;19.03;100;97667.01;;;;
2021/08/06 15:37:09;;;;;;;7.9;2.6;;;;;;;18.67;100;97674.29;;;;
2021/08/06 15:47:09;;;;;;;5.6;2;;;;;;;18.52;100;97675.36;;;;
2021/08/06 15:57:09;;;;;;;3.2;1.6;;;;;;;21.57;100;97676.88;;;;
2021/08/06 16:07:11;;;;;;;6.6;2.5;;;;;;;21.99;100;97675.83;;;;
2021/08/06 16:17:11;;;;;;;4.9;2.5;;;;;;;22.67;85.9707;97678.72;;;;
2021/08/06 16:27:11;;;;;;;5.6;2.5;;;;;;;21.89;87.42871;97677.45;;;;
2021/08/06 16:37:12;;;;;;;3.5;1.6;;;;;;;20.14;96.05371;97676.95;;;;
2021/08/06 16:47:12;;;;;;;4.9;2;;;;;;;19.9;98.62695;97668.37;;;;
2021/08/06 16:57:13;;;;;;;7.2;2;;;;;;;19.49;100;97667.16;;;;
2021/08/06 17:07:13;;;;;;;3.3;1.4;;;;;;;19.5;100;97666;;;;
2021/08/06 17:17:13;;;;;;;4.5;2.2;;;;;;;19.05;100;97664.69;;;;
2021/08/06 17:27:14;;;;;;;5.1;2.5;;;;;;;21.04;95.32715;97666.17;;;;
2021/08/06 17:37:14;;;;;;;3;1;;;;;;;19.28;100;97672.55;;;;
2021/08/06 17:47:14;;;;;;;6.8;3.2;;;;;;;18.18;100;97674.73;;;;
2021/08/06 17:57:14;;;;;;;11.2;2.7;;;;;;;17.49;100;97681.91;;;;
2021/08/06 18:07:15;;;;;;;6;2.8;;;;;;;16.53;100;97674.52;;;;
2021/08/06 18:17:15;;;;;;;8;6.3;;;;;;;15.82;100;97687.07;;;;
2021/08/06 18:27:16;;;;;;;5.4;3.3;;;;;;;15.35;100;97700.16;;;;
2021/08/06 18:37:14;;;;;;;6.2;4.1;;;;;;;14.94;100;97688.13;;;;
2021/08/06 18:47:14;;;;;;;4.6;2.9;;;;;;;14.74;100;97709.05;;;;
2021/08/06 18:57:16;;;;;;;5.5;3.3;;;;;;;14.47;100;97710.77;;;;
2021/08/06 19:07:13;;;;;;;4.4;2.8;;;;;;;14.25;100;97705.2;;;;
2021/08/06 19:17:13;;;;;;;5.5;3.2;;;;;;;14.2;100;97716.3;;;;
2021/08/06 19:27:13;;;;;;;5.3;2.8;;;;;;;14.13;100;97714.22;;;;
2021/08/06 19:37:12;;;;;;;9.4;4.1;;;;;;;13.89;100;97714.41;;;;
2021/08/06 19:47:12;;;;;;;7.3;3.7;;;;;;;13.81;100;97720.8;;;;
2021/08/06 19:57:12;;;;;;;7;3.9;;;;;;;13.71;100;97716.67;;;;
2021/08/06 20:07:12;;;;;;;6;3;;;;;;;13.54;100;97723.22;;;;
2021/08/06 20:17:11;;;;;;;5.6;3.2;;;;;;;13.38;100;97727.83;;;;
2021/08/06 20:27:10;;;;;;;10.1;4.5;;;;;;;13.33;100;97738.13;;;;
2021/08/06 20:37:10;;;;;;;7;3.9;;;;;;;13.44;100;97745.38;;;;
2021/08/06 20:47:09;;;;;;;5.2;3.2;;;;;;;13.4;100;97735.58;;;;
2021/08/06 20:57:09;;;;;;;5.4;3.5;;;;;;;13.5;100;97740.52;;;;
2021/08/06 21:07:08;;;;;;;7.1;2.7;;;;;;;13.44;100;97723.72;;;;
2021/08/06 21:17:07;;;;;;;5.2;2.9;;;;;;;13.36;100;97729.31;;;;
2021/08/06 21:27:07;;;;;;;6.9;3.9;;;;;;;13.35;100;97739.34;;;;
2021/08/06 21:37:06;;;;;;;5.5;2.9;;;;;;;13.33;100;97743.54;;;;
2021/08/06 21:47:06;;;;;;;7.4;4.1;;;;;;;13.51;100;97745.56;;;;
2021/08/06 21:57:05;;;;;;;7.2;3.5;;;;;;;13.49;100;97744.34;;;;
2021/08/06 22:07:05;;;;;;;7.6;3.6;;;;;;;13.36;100;97737.43;;;;
2021/08/06 22:17:04;;;;;;;5.7;3.8;;;;;;;13.32;100;97736.55;;;;
2021/08/06 22:27:04;;;;;;;7.1;3.7;;;;;;;13.16;100;97727.58;;;;
2021/08/06 22:37:03;;;;;;;5.7;3;;;;;;;13.28;100;97738.36;;;;
2021/08/06 22:47:03;;;;;;;5;3;;;;;;;13.14;100;97741.47;;;;
2021/08/06 22:57:02;;;;;;;7.7;4;;;;;;;13.06;100;97745.06;;;;
2021/08/06 23:07:01;;;;;;;7.5;4.1;;;;;;;12.83;100;97755.63;;;;
2021/08/06 23:17:01;;;;;;;6.9;2.9;;;;;;;12.75;100;97753.83;;;;
2021/08/06 23:27:00;;;;;;;6.6;3;;;;;;;12.65;100;97746.2;;;;
2021/08/06 23:36:59;;;;;;;6.2;4;;;;;;;12.59;100;97751.06;;;;
2021/08/06 23:46:59;;;;;;;5.4;2.3;;;;;;;12.49;100;97745.33;;;;
2021/08/06 23:56:58;;;;;;;5;3.2;;;;;;;12.39;100;97754.67;;;;
